Time;durP1;ratioP1;P1;durP2;ratioP2;P2;SDS_P1;SDS_P2;PMS_P1;PMS_P2;Temp;Humidity;BMP_temperature;BMP_pressure;BME280_temperature;BME280_humidity;BME280_pressure;Samples;Min_cycle;Max_cycle;Signal;HPM_P1;HPM_P2
2022/01/31 00:03:34;;;;;;;32.25;4.65;;;;;;;2.96;60.52;100154.38;10364146;28;20089;-76
2022/01/31 00:08:36;;;;;;;25.08;5.78;;;;;;;2.89;60.86;100147.47;10381013;28;20496;-77
2022/01/31 00:13:43;;;;;;;37.25;5.05;;;;;;;2.91;60.54;100140.53;10379719;28;20121;-77
2022/01/31 00:18:44;;;;;;;30.43;5.13;;;;;;;3.06;60.10;100150.94;10381257;28;20075;-76
2022/01/31 00:23:47;;;;;;;25.17;4.63;;;;;;;3.10;59.68;100155.28;10363298;28;20090;-76
2022/01/31 00:28:48;;;;;;;31.65;5.20;;;;;;;2.88;61.03;100138.81;10363211;28;20068;-76
2022/01/31 00:33:50;;;;;;;27.05;4.78;;;;;;;3.14;60.11;100114.56;10362461;28;20041;-76
2022/01/31 00:38:52;;;;;;;33.72;6.03;;;;;;;3.00;61.11;100101.56;10378421;28;20097;-76
2022/01/31 00:44:00;;;;;;;24.92;5.38;;;;;;;2.75;62.25;100090.34;10378855;28;20038;-77
2022/01/31 00:49:03;;;;;;;31.98;4.88;;;;;;;2.85;61.36;100096.38;10362305;28;20041;-77
2022/01/31 00:54:04;;;;;;;31.90;5.20;;;;;;;2.97;61.40;100099.84;10379547;28;20522;-77
2022/01/31 00:59:06;;;;;;;16.33;4.03;;;;;;;2.86;61.53;100087.72;10380219;28;20038;-77
2022/01/31 01:04:07;;;;;;;23.60;5.63;;;;;;;2.80;61.80;100051.41;10379007;28;20495;-76
2022/01/31 01:09:09;;;;;;;30.30;4.93;;;;;;;2.77;61.53;100034.94;10361320;28;20045;-77
2022/01/31 01:14:11;;;;;;;37.13;6.35;;;;;;;2.60;62.23;100007.25;10378852;28;20096;-77
2022/01/31 01:19:12;;;;;;;25.42;4.45;;;;;;;2.71;61.82;99989.97;10361628;28;20132;-78
2022/01/31 01:24:15;;;;;;;25.63;4.75;;;;;;;2.67;61.88;99968.34;10359251;28;20504;-77
2022/01/31 01:29:17;;;;;;;26.52;5.43;;;;;;;2.72;62.10;99948.44;10375635;28;20109;-77
2022/01/31 01:34:20;;;;;;;28.65;5.35;;;;;;;2.68;62.13;99938.06;10379244;28;20048;-77
2022/01/31 01:39:24;;;;;;;27.17;5.38;;;;;;;2.81;61.07;99924.19;10362046;28;20069;-77
2022/01/31 01:44:50;;;;;;;41.70;7.07;;;;;;;2.74;61.89;99914.66;10360558;28;20042;-75
2022/01/31 01:49:54;;;;;;;30.73;5.63;;;;;;;2.46;62.63;99900.88;10359484;28;20405;-75
2022/01/31 01:55:00;;;;;;;25.70;4.90;;;;;;;2.41;63.03;99893.09;10375849;28;20038;-75
2022/01/31 02:00:07;;;;;;;33.33;5.72;;;;;;;2.46;62.62;99870.63;10360025;28;20141;-74
2022/01/31 02:05:09;;;;;;;32.35;6.60;;;;;;;2.62;62.26;99849.84;10360686;28;20049;-74
2022/01/31 02:10:16;;;;;;;21.90;4.60;;;;;;;2.64;62.07;99829.94;10360330;28;20073;-75
2022/01/31 02:15:40;;;;;;;41.05;6.22;;;;;;;2.45;62.36;99827.38;10360888;28;20045;-74
2022/01/31 02:21:13;;;;;;;26.23;5.40;;;;;;;2.46;62.28;99816.13;10359217;28;20503;-74
2022/01/31 02:26:14;;;;;;;28.27;5.18;;;;;;;2.47;62.34;99809.22;10358889;28;20046;-74
2022/01/31 02:31:24;;;;;;;29.15;5.30;;;;;;;2.39;62.35;99775.53;10360009;28;20060;-75
2022/01/31 02:36:26;;;;;;;30.48;4.53;;;;;;;2.40;62.21;99779.84;10377868;28;20050;-75
2022/01/31 02:41:29;;;;;;;22.25;4.95;;;;;;;2.42;62.23;99769.44;10358853;28;20416;-75
2022/01/31 02:46:31;;;;;;;27.35;4.35;;;;;;;2.31;63.26;99759.13;10358622;28;20534;-75
2022/01/31 02:51:33;;;;;;;38.25;5.13;;;;;;;2.37;62.66;99755.63;10359165;28;20451;-74
2022/01/31 02:56:37;;;;;;;29.35;4.32;;;;;;;2.44;62.34;99747.84;10358374;28;20121;-74
2022/01/31 03:01:38;;;;;;;20.92;5.13;;;;;;;2.49;62.23;99727.91;10358756;28;20046;-74
2022/01/31 03:06:45;;;;;;;22.75;5.18;;;;;;;2.32;63.11;99726.25;10358091;28;20076;-74
2022/01/31 03:11:47;;;;;;;42.85;5.85;;;;;;;2.37;62.87;99709.81;10359080;28;20412;-75
2022/01/31 03:16:52;;;;;;;27.25;5.47;;;;;;;2.39;62.52;99697.72;10363954;28;20052;-74
2022/01/31 03:21:55;;;;;;;36.45;5.28;;;;;;;2.39;62.07;99678.66;10365333;28;20041;-75
2022/01/31 03:26:57;;;;;;;35.85;7.20;;;;;;;2.38;62.16;99657.06;10366979;28;20161;-74
2022/01/31 03:31:59;;;;;;;43.45;5.90;;;;;;;2.33;62.56;99644.97;10365429;28;20046;-74
2022/01/31 03:37:00;;;;;;;25.83;4.85;;;;;;;2.34;62.32;99623.34;10365271;28;20108;-75
2022/01/31 03:42:04;;;;;;;29.17;5.43;;;;;;;2.31;62.25;99606.09;10364832;28;20537;-75
2022/01/31 03:47:08;;;;;;;21.77;5.60;;;;;;;2.38;62.07;99607.75;10364249;28;20467;-74
2022/01/31 03:52:10;;;;;;;29.10;4.80;;;;;;;2.38;62.57;99605.16;10363797;28;20034;-74
2022/01/31 03:57:17;;;;;;;26.13;5.63;;;;;;;2.38;61.92;99593.94;10380225;28;20464;-74
2022/01/31 04:02:26;;;;;;;43.20;5.90;;;;;;;2.42;62.07;99588.72;10382117;28;20041;-74
2022/01/31 04:07:28;;;;;;;34.53;6.15;;;;;;;2.30;62.27;99568.03;10382174;28;20408;-74
2022/01/31 04:12:29;;;;;;;25.45;5.78;;;;;;;2.45;62.33;99543.75;10381319;28;20076;-75
2022/01/31 04:17:32;;;;;;;29.38;5.22;;;;;;;2.45;61.32;99510.03;10381340;28;20104;-74
2022/01/31 04:22:40;;;;;;;35.10;5.45;;;;;;;2.35;61.92;99509.25;10363906;28;20077;-74
2022/01/31 04:27:45;;;;;;;32.47;5.68;;;;;;;2.26;62.24;99494.59;10379636;28;20042;-74
2022/01/31 04:32:47;;;;;;;31.15;5.28;;;;;;;2.47;61.19;99482.34;10380628;28;20408;-74
2022/01/31 04:37:48;;;;;;;31.95;5.85;;;;;;;2.43;61.62;99475.44;10362392;28;20510;-74
2022/01/31 04:42:50;;;;;;;36.35;6.53;;;;;;;2.43;61.57;99460.75;10362924;28;20050;-74
2022/01/31 04:47:51;;;;;;;29.55;6.07;;;;;;;2.38;61.67;99433.13;10378860;28;20111;-74
2022/01/31 04:52:53;;;;;;;32.75;6.45;;;;;;;2.36;61.50;99412.41;10380433;28;20046;-74
2022/01/31 04:57:55;;;;;;;27.48;5.03;;;;;;;2.45;60.92;99401.94;10380491;28;20104;-74
2022/01/31 05:02:56;;;;;;;31.60;5.75;;;;;;;2.27;61.89;99368.41;10380688;28;20052;-74
2022/01/31 05:07:58;;;;;;;37.60;5.55;;;;;;;2.06;62.54;99366.84;10381806;28;20123;-74
2022/01/31 05:13:00;;;;;;;29.40;5.03;;;;;;;2.14;62.31;99351.22;10380517;28;20053;-74
2022/01/31 05:18:02;;;;;;;30.83;4.80;;;;;;;1.85;63.05;99346.25;10381851;28;20049;-74
2022/01/31 05:23:07;;;;;;;28.13;4.90;;;;;;;1.84;63.56;99337.63;10380306;28;20077;-74
2022/01/31 05:28:09;;;;;;;25.80;4.38;;;;;;;1.98;62.52;99340.97;10379633;28;20065;-73
2022/01/31 05:33:10;;;;;;;23.35;5.00;;;;;;;2.12;62.52;99334.81;10380785;28;20057;-74
2022/01/31 05:38:12;;;;;;;24.42;4.90;;;;;;;2.09;62.60;99332.25;10362952;28;20057;-77
2022/01/31 05:43:14;;;;;;;36.65;5.72;;;;;;;2.20;62.08;99325.22;10378812;28;20060;-75
2022/01/31 05:48:18;;;;;;;19.15;4.75;;;;;;;2.28;61.53;99318.25;10380221;28;20451;-73
2022/01/31 05:53:21;;;;;;;27.02;4.93;;;;;;;2.09;63.01;99306.34;10362840;28;20049;-75
2022/01/31 05:58:23;;;;;;;22.92;4.65;;;;;;;2.17;62.62;99292.44;10383338;28;20073;-74
2022/01/31 06:03:25;;;;;;;41.35;7.25;;;;;;;2.28;61.91;99272.41;10385173;28;20084;-73
2022/01/31 06:08:28;;;;;;;29.48;5.10;;;;;;;2.22;62.11;99251.75;10386663;28;20048;-73
2022/01/31 06:13:33;;;;;;;28.55;5.35;;;;;;;2.24;62.62;99236.16;10384754;28;20120;-76
2022/01/31 06:18:36;;;;;;;30.75;5.88;;;;;;;2.47;61.27;99217.75;10369943;28;20052;-76
2022/01/31 06:23:38;;;;;;;23.75;5.20;;;;;;;2.17;62.45;99191.31;10384293;28;20125;-74
2022/01/31 06:28:40;;;;;;;27.95;5.55;;;;;;;2.45;61.74;99180.59;10383341;28;20080;-74
2022/01/31 06:34:02;;;;;;;21.17;5.47;;;;;;;2.14;63.41;99168.00;10384133;28;20129;-76
2022/01/31 06:39:04;;;;;;;31.50;6.07;;;;;;;2.26;62.67;99167.88;10369165;28;20060;-74
2022/01/31 06:44:09;;;;;;;38.08;6.22;;;;;;;1.89;63.96;99156.19;10387009;28;20066;-75
2022/01/31 06:49:12;;;;;;;21.42;5.00;;;;;;;1.92;63.74;99154.41;10389575;28;20048;-74
2022/01/31 06:54:14;;;;;;;41.10;5.80;;;;;;;2.01;63.81;99140.50;10378676;28;20045;-74
2022/01/31 06:59:16;;;;;;;31.10;6.63;;;;;;;2.08;63.45;99142.16;10395609;28;20148;-74
2022/01/31 07:04:18;;;;;;;30.35;5.82;;;;;;;1.95;64.48;99114.66;10393566;28;20050;-74
2022/01/31 07:09:21;;;;;;;23.38;5.82;;;;;;;2.07;63.60;99106.72;10392546;28;20041;-74
2022/01/31 07:14:30;;;;;;;22.45;5.07;;;;;;;2.18;62.78;99083.28;10392947;28;20052;-75
2022/01/31 07:19:35;;;;;;;36.22;6.25;;;;;;;2.30;62.78;99064.94;10377120;28;20046;-74
2022/01/31 07:29:39;;;;;;;29.02;5.40;;;;;;;2.35;63.29;99039.81;10393484;28;20038;-75
2022/01/31 07:34:43;;;;;;;34.30;5.95;;;;;;;2.62;61.80;99024.72;10390943;28;20175;-75
2022/01/31 07:39:46;;;;;;;25.45;5.70;;;;;;;2.39;62.51;99022.44;10390439;28;20050;-75
2022/01/31 07:44:58;;;;;;;24.08;5.03;;;;;;;2.58;62.14;99016.13;10424374;23;20049;-72
2022/01/31 07:50:09;;;;;;;33.88;5.60;;;;;;;2.52;62.82;99008.41;10366403;28;20442;-70
2022/01/31 07:55:12;;;;;;;26.95;6.28;;;;;;;2.44;62.98;98993.00;10346046;28;20439;-70
2022/01/31 08:00:14;;;;;;;22.65;5.65;;;;;;;2.51;63.06;98958.28;10381758;28;20050;-70
2022/01/31 08:05:21;;;;;;;17.80;5.22;;;;;;;2.81;62.11;98953.44;10382891;28;20060;-70
2022/01/31 08:10:23;;;;;;;20.92;4.88;;;;;;;2.89;61.65;98940.34;10381679;28;20042;-71
2022/01/31 08:15:28;;;;;;;14.20;4.68;;;;;;;2.77;63.29;98941.41;10380999;28;20096;-72
2022/01/31 08:20:29;;;;;;;18.23;4.35;;;;;;;2.81;62.63;98926.66;10379294;28;20038;-70
2022/01/31 08:25:35;;;;;;;19.48;4.65;;;;;;;3.05;61.48;98931.38;10379909;28;20038;-70
2022/01/31 08:30:58;;;;;;;15.57;3.63;;;;;;;3.10;61.24;98926.97;10378267;28;20046;-71
2022/01/31 08:36:01;;;;;;;18.50;4.55;;;;;;;3.15;61.25;98903.50;10378846;28;20048;-71
2022/01/31 08:41:03;;;;;;;13.05;4.95;;;;;;;3.18;60.76;98886.09;10378528;28;20049;-70
2022/01/31 08:46:07;;;;;;;20.40;4.55;;;;;;;3.22;60.62;98881.72;10361217;28;20140;-69
2022/01/31 08:51:10;;;;;;;12.88;5.10;;;;;;;3.43;59.30;98864.81;10379009;28;20053;-71
2022/01/31 08:56:12;;;;;;;15.25;3.55;;;;;;;3.33;59.00;98853.78;10377603;28;20057;-70
2022/01/31 09:01:17;;;;;;;13.90;3.97;;;;;;;3.36;59.01;98856.28;10378923;28;20046;-70
2022/01/31 09:06:25;;;;;;;17.70;3.78;;;;;;;3.45;59.00;98856.13;10376910;28;20066;-71
2022/01/31 09:11:28;;;;;;;12.52;4.78;;;;;;;3.57;59.12;98841.13;10377912;28;20058;-71
2022/01/31 09:16:30;;;;;;;7.07;3.00;;;;;;;3.40;59.13;98844.94;10396679;28;20092;-71
2022/01/31 09:21:32;;;;;;;13.55;3.70;;;;;;;3.38;60.40;98838.94;10377524;28;20042;-70
2022/01/31 09:26:36;;;;;;;9.82;4.13;;;;;;;3.56;60.42;98826.44;10377832;28;20050;-70
2022/01/31 09:31:38;;;;;;;12.15;3.42;;;;;;;3.44;62.49;98818.03;10409544;28;20049;-71
2022/01/31 09:36:40;;;;;;;13.10;3.40;;;;;;;3.36;63.98;98816.47;10417901;28;20111;-71
2022/01/31 09:41:45;;;;;;;10.25;3.45;;;;;;;3.38;66.00;98818.16;10417823;28;20060;-70
2022/01/31 09:52:06;;;;;;;18.27;5.05;;;;;;;3.24;70.57;98794.25;10376129;28;20442;-72
2022/01/31 09:57:08;;;;;;;11.60;4.05;;;;;;;3.16;72.89;98791.81;10375816;28;20041;-70
2022/01/31 10:02:11;;;;;;;15.65;4.53;;;;;;;2.86;74.55;98788.13;10377893;28;20511;-70
2022/01/31 10:07:14;;;;;;;14.30;4.28;;;;;;;2.75;77.03;98779.72;10360790;28;20411;-70
2022/01/31 10:16:24;;;;;;;11.52;4.68;;;;;;;2.71;78.16;98768.53;10376577;28;20042;-70
2022/01/31 10:17:45;;;;;;;16.20;4.50;;;;;;;2.49;80.88;98765.50;10375337;28;20053;-69
2022/01/31 10:22:47;;;;;;;16.05;6.15;;;;;;;2.48;81.98;98752.59;10407824;28;20124;-69
2022/01/31 10:27:51;;;;;;;20.38;4.78;;;;;;;2.47;81.85;98746.50;10407174;28;20049;-68
2022/01/31 10:32:55;;;;;;;15.38;4.80;;;;;;;2.34;82.87;98742.44;10408428;28;20116;-69
2022/01/31 10:38:08;;;;;;;20.33;5.20;;;;;;;2.49;82.94;98731.78;10407470;28;20052;-69
2022/01/31 10:54:08;;;;;;;23.90;6.40;;;;;;;2.68;83.71;98715.84;10424325;28;20041;-69
2022/01/31 10:59:16;;;;;;;13.88;5.20;;;;;;;2.74;81.77;98713.09;10407507;28;20045;-69
2022/01/31 11:04:18;;;;;;;15.07;5.32;;;;;;;2.85;82.74;98708.56;10424815;28;20394;-70
2022/01/31 11:09:19;;;;;;;11.25;4.97;;;;;;;2.83;81.70;98712.91;10424108;28;20042;-69
2022/01/31 11:14:22;;;;;;;11.70;4.72;;;;;;;3.04;81.24;98704.66;10421327;28;20095;-70
2022/01/31 11:19:32;;;;;;;14.02;4.53;;;;;;;2.88;81.37;98697.22;10416756;28;20038;-69
2022/01/31 11:24:44;;;;;;;9.93;4.32;;;;;;;2.76;84.32;98691.44;10362822;28;20038;-70
2022/01/31 11:29:48;;;;;;;8.63;3.78;;;;;;;2.88;84.69;98690.34;10380326;28;20045;-69
2022/01/31 11:34:50;;;;;;;6.60;3.55;;;;;;;2.81;84.40;98688.75;10379221;28;20092;-69
2022/01/31 11:40:00;;;;;;;4.90;2.60;;;;;;;2.85;84.74;98673.97;10380030;28;20100;-69
2022/01/31 11:45:11;;;;;;;8.43;3.65;;;;;;;2.81;85.67;98688.75;10379172;28;20080;-70
2022/01/31 11:50:13;;;;;;;5.68;2.72;;;;;;;2.74;85.52;98676.78;10380123;28;20377;-68
2022/01/31 11:55:18;;;;;;;2.72;1.88;;;;;;;2.82;84.94;98677.47;10361668;28;20065;-70
2022/01/31 12:00:22;;;;;;;5.72;1.95;;;;;;;3.01;86.23;98664.91;10379989;28;20094;-71
2022/01/31 12:05:30;;;;;;;2.17;1.92;;;;;;;2.98;87.05;98657.22;10361903;28;20046;-70
2022/01/31 12:10:37;;;;;;;3.55;3.08;;;;;;;2.94;87.48;98655.59;10378847;28;20069;-69
2022/01/31 12:16:12;;;;;;;33.92;13.23;;;;;;;2.86;87.41;98667.88;10379944;28;20046;-69
2022/01/31 12:26:46;;;;;;;4.65;4.25;;;;;;;2.75;87.41;98665.53;10418954;28;20558;-70
2022/01/31 12:31:57;;;;;;;2.08;1.67;;;;;;;2.55;88.40;98658.19;10419129;28;20045;-69
2022/01/31 12:37:34;;;;;;;3.75;2.08;;;;;;;2.42;88.82;98657.56;10418970;28;20053;-69
2022/01/31 12:48:27;;;;;;;2.53;2.33;;;;;;;2.31;88.51;98664.75;10418096;28;20103;-70
2022/01/31 12:53:37;;;;;;;1.60;1.50;;;;;;;2.24;89.55;98669.19;10419146;28;20046;-69
2022/01/31 12:58:47;;;;;;;1.85;1.00;;;;;;;2.23;88.91;98671.81;10419179;28;20045;-69
2022/01/31 13:03:55;;;;;;;1.52;1.05;;;;;;;2.22;90.55;98670.13;10418245;28;20041;-69
2022/01/31 13:09:00;;;;;;;1.90;1.05;;;;;;;2.27;91.27;98676.91;10418148;28;20042;-70
2022/01/31 13:14:38;;;;;;;1.13;0.98;;;;;;;2.40;89.32;98674.06;10536123;27;20769;-69
2022/01/31 13:19:55;;;;;;;1.65;1.42;;;;;;;2.40;89.13;98679.25;10543542;28;20074;-70
2022/01/31 13:25:07;;;;;;;1.23;1.13;;;;;;;2.40;89.58;98690.47;10575848;28;20143;-69
2022/01/31 13:30:30;;;;;;;2.70;1.30;;;;;;;2.26;90.41;98685.56;10576575;28;20040;-69
2022/01/31 13:35:34;;;;;;;3.20;3.00;;;;;;;2.18;91.91;98682.28;10576249;28;20062;-68
2022/01/31 13:40:46;;;;;;;3.30;3.00;;;;;;;1.95;92.60;98681.88;10552306;28;20038;-69
2022/01/31 13:51:44;;;;;;;3.67;2.55;;;;;;;1.97;93.89;98690.47;10432835;28;20041;-75
2022/01/31 13:56:50;;;;;;;2.72;2.30;;;;;;;1.90;93.65;98691.44;10416902;28;20041;-75
2022/01/31 14:02:13;;;;;;;3.78;2.40;;;;;;;1.89;93.86;98697.50;10415405;28;20072;-75
2022/01/31 14:07:30;;;;;;;2.83;1.98;;;;;;;1.88;94.13;98711.34;10431161;28;20495;-75
2022/01/31 14:12:33;;;;;;;3.50;2.78;;;;;;;1.72;94.02;98713.34;10418414;28;20475;-75
2022/01/31 14:17:35;;;;;;;3.03;2.70;;;;;;;1.67;93.27;98713.44;10432313;28;20072;-74
2022/01/31 14:22:37;;;;;;;2.63;2.40;;;;;;;1.58;92.50;98717.91;10424032;28;20427;-74
2022/01/31 14:27:52;;;;;;;3.58;2.70;;;;;;;1.52;91.62;98726.66;10407208;28;20050;-74
2022/01/31 14:33:07;;;;;;;2.90;2.60;;;;;;;1.31;93.22;98735.59;10404957;28;20045;-74
2022/01/31 14:38:20;;;;;;;3.50;3.20;;;;;;;1.15;94.25;98736.69;10388190;28;20049;-75
2022/01/31 14:48:57;;;;;;;6.85;6.25;;;;;;;1.11;94.46;98735.91;10385219;28;20046;-76
2022/01/31 14:54:07;;;;;;;6.10;5.60;;;;;;;1.10;93.62;98739.34;10386642;28;20407;-75
2022/01/31 14:59:09;;;;;;;6.85;6.25;;;;;;;1.04;94.67;98747.22;10388971;28;20072;-75
2022/01/31 15:04:19;;;;;;;5.68;5.28;;;;;;;0.98;94.92;98745.56;10388739;28;20045;-75
2022/01/31 15:09:22;;;;;;;6.13;5.68;;;;;;;0.93;95.33;98773.25;10388049;28;20496;-74
2022/01/31 15:14:24;;;;;;;9.05;8.13;;;;;;;0.86;95.89;98775.94;10386784;28;20072;-75
2022/01/31 15:19:26;;;;;;;9.00;8.20;;;;;;;0.77;96.22;98783.81;10403688;28;20534;-74
2022/01/31 15:24:27;;;;;;;9.02;8.27;;;;;;;0.91;95.88;98792.25;10389713;28;20050;-76
2022/01/31 15:29:29;;;;;;;7.80;7.20;;;;;;;0.73;94.64;98803.69;10387642;28;20042;-76
2022/01/31 15:34:33;;;;;;;8.90;8.20;;;;;;;0.69;94.94;98804.59;10386429;28;20037;-75
2022/01/31 15:39:35;;;;;;;8.48;7.88;;;;;;;0.80;94.51;98807.91;10384509;28;20115;-76
2022/01/31 15:44:42;;;;;;;8.80;8.10;;;;;;;0.88;92.98;98807.78;10382849;28;20048;-75
2022/01/31 15:49:44;;;;;;;8.32;7.72;;;;;;;0.79;92.30;98810.50;10397963;28;20052;-77
2022/01/31 15:55:06;;;;;;;8.80;8.10;;;;;;;0.76;92.56;98821.75;10383801;28;20042;-75
2022/01/31 16:00:14;;;;;;;9.45;8.52;;;;;;;0.56;94.51;98823.69;10396419;28;20120;-76
2022/01/31 16:05:19;;;;;;;10.00;9.23;;;;;;;0.52;95.20;98827.19;10396002;28;20145;-76
2022/01/31 16:10:21;;;;;;;11.25;10.45;;;;;;;0.52;95.45;98829.78;10382143;28;20045;-76
2022/01/31 16:15:23;;;;;;;10.88;10.07;;;;;;;0.43;96.26;98835.88;10381486;28;20045;-75
2022/01/31 16:20:25;;;;;;;12.68;11.68;;;;;;;0.30;97.98;98836.88;10384035;28;20069;-75
2022/01/31 16:25:27;;;;;;;11.70;10.60;;;;;;;0.40;98.39;98841.97;10382752;28;20070;-75
2022/01/31 16:30:31;;;;;;;12.95;12.02;;;;;;;0.30;98.54;98853.25;10381489;28;20117;-75
2022/01/31 16:35:33;;;;;;;12.10;11.20;;;;;;;0.45;98.09;98847.94;10398282;28;20080;-75
2022/01/31 16:40:35;;;;;;;13.00;11.95;;;;;;;0.35;98.12;98861.81;10381551;28;20042;-74
2022/01/31 16:45:42;;;;;;;13.52;12.43;;;;;;;0.29;98.90;98869.63;10384893;28;20233;-75
2022/01/31 16:50:44;;;;;;;14.43;12.80;;;;;;;0.20;99.60;98869.72;10381908;28;20046;-74
2022/01/31 16:55:46;;;;;;;12.98;11.77;;;;;;;0.28;99.96;98880.00;10384750;28;20049;-74
2022/01/31 17:00:48;;;;;;;12.43;11.35;;;;;;;0.29;100.00;98892.03;10382788;28;20052;-74
2022/01/31 17:05:52;;;;;;;11.77;10.77;;;;;;;0.29;100.00;98895.47;10382391;28;20041;-74
2022/01/31 17:10:54;;;;;;;11.65;10.65;;;;;;;0.31;100.00;98900.63;10386192;28;20088;-74
2022/01/31 17:15:58;;;;;;;10.40;9.60;;;;;;;0.35;100.00;98916.09;10384474;28;20077;-74
2022/01/31 17:21:00;;;;;;;11.02;10.23;;;;;;;0.30;100.00;98923.03;10399652;28;20038;-75
2022/01/31 17:26:02;;;;;;;14.25;13.05;;;;;;;0.46;100.00;98932.38;10380812;28;20046;-74
2022/01/31 17:31:04;;;;;;;10.88;10.07;;;;;;;0.43;100.00;98953.09;10382247;28;20042;-75
2022/01/31 17:36:06;;;;;;;12.52;11.52;;;;;;;0.49;99.55;98957.38;10381660;28;20054;-75
2022/01/31 17:41:08;;;;;;;15.75;14.55;;;;;;;0.45;100.00;98958.25;10380250;28;20069;-75
2022/01/31 17:46:14;;;;;;;17.52;16.10;;;;;;;0.38;100.00;98967.78;10380033;28;20049;-75
2022/01/31 17:51:16;;;;;;;18.55;17.05;;;;;;;0.40;100.00;98980.69;10381477;28;20507;-75
2022/01/31 17:56:18;;;;;;;19.83;18.05;;;;;;;0.45;100.00;98992.72;10383551;28;20081;-75
2022/01/31 18:01:22;;;;;;;21.63;19.23;;;;;;;0.39;100.00;99008.25;10394748;28;20073;-75
2022/01/31 18:06:26;;;;;;;22.10;19.95;;;;;;;0.41;100.00;99013.44;10397056;28;20060;-75
2022/01/31 18:11:28;;;;;;;23.90;21.48;;;;;;;0.39;100.00;99017.75;10392910;28;20541;-76
2022/01/31 18:16:30;;;;;;;23.88;21.40;;;;;;;0.45;100.00;99036.69;10396551;28;20041;-75
2022/01/31 18:21:33;;;;;;;29.65;24.27;;;;;;;0.58;100.00;99047.78;10393819;28;20044;-75
2022/01/31 18:26:35;;;;;;;25.58;22.75;;;;;;;0.52;100.00;99054.72;10405065;28;20069;-75
2022/01/31 18:31:37;;;;;;;44.05;28.25;;;;;;;0.49;100.00;99068.56;10391306;28;20435;-76
2022/01/31 18:36:39;;;;;;;32.28;25.75;;;;;;;0.50;100.00;99076.28;10388440;28;20052;-75
2022/01/31 18:41:42;;;;;;;37.00;27.00;;;;;;;0.51;100.00;99077.13;10390047;28;20049;-75
2022/01/31 18:46:46;;;;;;;43.13;28.63;;;;;;;0.46;100.00;99084.06;10390741;28;20077;-76
2022/01/31 18:51:55;;;;;;;45.42;29.55;;;;;;;0.50;100.00;99094.38;10389643;28;20052;-76
2022/01/31 18:56:57;;;;;;;47.50;30.25;;;;;;;0.53;100.00;99102.97;10382860;28;20126;-77
2022/01/31 19:02:04;;;;;;;40.45;28.58;;;;;;;0.61;100.00;99134.81;10399036;28;20141;-76
2022/01/31 19:07:07;;;;;;;35.95;28.73;;;;;;;0.60;100.00;99128.78;10382644;28;20076;-76
2022/01/31 19:12:19;;;;;;;41.03;30.35;;;;;;;0.66;100.00;99130.47;10380616;28;20389;-74
2022/01/31 19:17:21;;;;;;;41.00;29.35;;;;;;;0.65;100.00;99139.97;10383178;28;20495;-75
2022/01/31 19:22:22;;;;;;;44.08;30.42;;;;;;;0.68;100.00;99152.03;10382439;28;20048;-76
2022/01/31 19:27:24;;;;;;;41.40;30.42;;;;;;;0.75;100.00;99156.28;10380702;28;20038;-76
2022/01/31 19:32:30;;;;;;;43.72;29.80;;;;;;;0.82;100.00;99167.47;10396385;28;20137;-76
2022/01/31 19:37:31;;;;;;;37.42;30.90;;;;;;;0.79;100.00;99177.81;10380106;28;20076;-76
2022/01/31 19:47:53;;;;;;;41.00;29.77;;;;;;;0.74;100.00;99198.53;10379355;28;20050;-76
2022/01/31 19:52:55;;;;;;;33.88;28.45;;;;;;;0.88;100.00;99204.50;10396165;28;20048;-76
2022/01/31 19:57:57;;;;;;;39.58;28.85;;;;;;;0.91;100.00;99216.56;10380061;28;20042;-76
2022/01/31 20:03:06;;;;;;;32.72;26.27;;;;;;;0.96;100.00;99218.25;10378709;28;20045;-75
2022/01/31 20:08:12;;;;;;;35.47;25.27;;;;;;;0.98;100.00;99231.19;10377741;28;20104;-75
2022/01/31 20:13:16;;;;;;;41.58;28.58;;;;;;;0.87;100.00;99236.41;10394768;28;20068;-75
2022/01/31 20:18:19;;;;;;;34.25;26.02;;;;;;;0.92;100.00;99246.75;10377074;28;20100;-75
2022/01/31 20:23:29;;;;;;;41.67;26.65;;;;;;;0.99;100.00;99261.38;10378232;28;20100;-76
2022/01/31 20:28:32;;;;;;;42.13;28.20;;;;;;;1.00;100.00;99271.72;10393866;28;20510;-76
2022/01/31 20:33:35;;;;;;;39.00;27.13;;;;;;;1.10;100.00;99294.94;10393806;28;20068;-75
2022/01/31 20:38:44;;;;;;;34.35;26.10;;;;;;;0.95;100.00;99314.00;10378532;28;20360;-76
2022/01/31 20:43:46;;;;;;;29.63;24.70;;;;;;;1.17;100.00;99319.94;10393531;28;20049;-75
2022/01/31 20:48:49;;;;;;;32.50;23.90;;;;;;;1.29;100.00;99339.75;10377995;28;20092;-75
2022/01/31 20:53:52;;;;;;;39.03;24.40;;;;;;;1.21;100.00;99352.72;10376643;28;20088;-75
2022/01/31 20:58:54;;;;;;;40.30;22.35;;;;;;;1.12;100.00;99357.94;10392840;28;20097;-75
2022/01/31 21:03:56;;;;;;;47.42;22.58;;;;;;;1.20;100.00;99366.53;10392444;28;20112;-74
2022/01/31 21:08:59;;;;;;;32.97;21.33;;;;;;;1.17;100.00;99377.75;10391669;28;20046;-75
2022/01/31 21:14:01;;;;;;;49.85;20.23;;;;;;;1.25;100.00;99386.34;10376208;28;20038;-75
2022/01/31 21:19:03;;;;;;;46.88;19.80;;;;;;;1.25;100.00;99391.53;10374796;28;20060;-75
2022/01/31 21:24:05;;;;;;;29.73;17.35;;;;;;;1.23;100.00;99401.00;10376320;28;20053;-75
2022/01/31 21:29:07;;;;;;;38.00;18.02;;;;;;;1.21;100.00;99407.94;10391565;28;20100;-76
2022/01/31 21:34:09;;;;;;;53.88;21.17;;;;;;;1.08;100.00;99413.16;10380642;28;20416;-75
2022/01/31 21:39:11;;;;;;;42.47;19.30;;;;;;;1.25;100.00;99421.75;10400094;28;20046;-76
2022/01/31 21:44:12;;;;;;;59.55;20.40;;;;;;;1.09;100.00;99422.66;10385300;28;20042;-75
2022/01/31 21:49:14;;;;;;;45.05;18.27;;;;;;;1.13;100.00;99422.63;10383230;28;20050;-76
2022/01/31 21:54:18;;;;;;;47.63;17.65;;;;;;;1.20;100.00;99426.94;10382512;28;20038;-75
2022/01/31 21:59:35;;;;;;;53.03;17.23;;;;;;;1.21;99.68;99426.06;10385528;28;20115;-74
2022/01/31 22:04:38;;;;;;;31.25;15.18;;;;;;;1.13;100.00;99426.94;10383918;28;20045;-74
2022/01/31 22:10:01;;;;;;;54.03;16.60;;;;;;;1.03;100.00;99435.63;10397446;28;20049;-75
2022/01/31 22:15:06;;;;;;;58.80;17.35;;;;;;;0.92;100.00;99446.84;10381278;28;20045;-74
2022/01/31 22:20:08;;;;;;;44.88;16.58;;;;;;;0.93;100.00;99438.25;10382526;28;20042;-75
2022/01/31 22:25:11;;;;;;;44.58;15.80;;;;;;;1.06;100.00;99451.97;10380951;28;20046;-75
2022/01/31 22:30:13;;;;;;;54.45;14.95;;;;;;;1.07;100.00;99463.22;10382582;28;20042;-75
2022/01/31 22:35:15;;;;;;;41.33;15.60;;;;;;;1.05;100.00;99472.69;10382826;28;20447;-75
2022/01/31 22:40:17;;;;;;;45.83;14.70;;;;;;;0.93;100.00;99479.63;10382059;28;20048;-75
2022/01/31 22:45:18;;;;;;;41.05;15.60;;;;;;;1.01;100.00;99501.16;10396375;28;20050;-75
2022/01/31 22:50:20;;;;;;;43.50;14.27;;;;;;;0.94;100.00;99509.81;10396041;28;20069;-75
2022/01/31 22:55:22;;;;;;;54.60;18.52;;;;;;;0.83;100.00;99521.03;10381438;28;20046;-75
2022/01/31 23:00:23;;;;;;;57.80;16.58;;;;;;;0.82;100.00;99521.91;10379303;28;20072;-75
2022/01/31 23:05:25;;;;;;;39.60;15.23;;;;;;;0.87;100.00;99530.53;10379398;28;20050;-76
2022/01/31 23:10:26;;;;;;;45.13;16.25;;;;;;;0.83;100.00;99545.19;10381677;28;20046;-75
2022/01/31 23:15:41;;;;;;;44.50;18.02;;;;;;;0.83;100.00;99558.13;10395446;28;20038;-75
2022/01/31 23:42:17;;;;;;;46.30;14.30;;;;;;;0.88;99.45;99574.50;10378160;28;20042;-75
